Time;durP1;ratioP1;P1;durP2;ratioP2;P2;SDS_P1;SDS_P2;PMS_P1;PMS_P2;Temp;Humidity;BMP_temperature;BMP_pressure;BME280_temperature;BME280_humidity;BME280_pressure;Samples;Min_cycle;Max_cycle;Signal;HPM_P1;HPM_P2
2022/07/08 00:02:06;;;;;;;4.75;4.53;;;;;;;23.51;60.02;95002.81;5010916;28;20231;-64
2022/07/08 00:04:33;;;;;;;6.10;5.00;;;;;;;23.50;60.75;95002.97;5011024;28;20238;-64
2022/07/08 00:07:00;;;;;;;10.80;8.77;;;;;;;22.70;62.82;94996.66;5010845;28;20231;-63
2022/07/08 00:09:28;;;;;;;6.47;5.88;;;;;;;21.91;66.10;94989.31;5010470;28;20210;-63
2022/07/08 00:11:56;;;;;;;10.10;8.27;;;;;;;21.59;67.33;94990.06;5011489;28;20208;-64
2022/07/08 00:14:24;;;;;;;10.32;8.98;;;;;;;21.95;66.39;94994.13;5011523;28;20207;-64
2022/07/08 00:16:51;;;;;;;8.05;7.25;;;;;;;22.55;64.47;94991.91;5008673;28;20204;-63
2022/07/08 00:19:19;;;;;;;6.80;6.30;;;;;;;22.63;63.97;94992.94;5011579;28;20890;-65
2022/07/08 00:21:49;;;;;;;7.50;6.93;;;;;;;22.58;64.09;94992.47;5010766;28;20227;-63
2022/07/08 00:24:17;;;;;;;9.75;7.15;;;;;;;22.70;63.69;94980.31;5009316;28;20716;-64
2022/07/08 00:26:45;;;;;;;7.03;6.53;;;;;;;22.99;62.67;94981.34;5010101;28;20294;-64
2022/07/08 00:29:13;;;;;;;12.68;9.65;;;;;;;23.24;61.55;94989.63;5010391;28;20254;-63
2022/07/08 00:31:40;;;;;;;8.77;7.93;;;;;;;23.29;61.26;94988.28;5010586;28;20204;-65
2022/07/08 00:34:07;;;;;;;11.43;8.55;;;;;;;23.23;61.82;94982.81;5011023;28;20638;-64
2022/07/08 00:36:35;;;;;;;6.88;6.38;;;;;;;23.08;61.65;94996.09;5011664;28;20297;-64
2022/07/08 00:39:02;;;;;;;6.85;6.10;;;;;;;22.76;63.03;94990.16;5010743;28;20212;-64
2022/07/08 00:41:30;;;;;;;8.55;7.75;;;;;;;22.47;63.93;94983.97;5010658;28;20212;-64
2022/07/08 00:43:58;;;;;;;14.85;8.90;;;;;;;22.44;64.17;94994.56;5010093;28;20223;-64
2022/07/08 00:46:24;;;;;;;6.88;6.18;;;;;;;22.21;64.94;94994.66;5009642;28;20208;-63
2022/07/08 00:48:51;;;;;;;6.15;5.70;;;;;;;22.09;65.56;94992.22;5010784;28;20212;-63
2022/07/08 00:51:20;;;;;;;8.15;5.43;;;;;;;22.37;64.58;94989.06;5009826;28;20892;-64
2022/07/08 00:53:51;;;;;;;6.28;5.68;;;;;;;22.58;63.90;94986.47;5010518;28;20219;-64
2022/07/08 00:56:19;;;;;;;7.70;6.25;;;;;;;23.03;62.68;94993.06;5009766;28;20704;-64
2022/07/08 00:58:47;;;;;;;6.32;5.93;;;;;;;23.14;62.17;94999.13;5009901;28;20212;-65
2022/07/08 01:01:16;;;;;;;5.40;5.10;;;;;;;23.21;61.65;94989.91;5009166;28;20299;-64
2022/07/08 01:03:43;;;;;;;8.45;5.35;;;;;;;23.06;62.05;94982.44;5010471;28;20277;-64
2022/07/08 01:06:10;;;;;;;5.13;4.72;;;;;;;22.97;62.24;94987.59;5009987;28;20737;-64
2022/07/08 01:08:36;;;;;;;5.55;5.07;;;;;;;22.71;62.52;94987.13;5009296;28;20242;-64
2022/07/08 01:11:04;;;;;;;5.35;5.05;;;;;;;22.03;65.33;94983.19;5006275;28;20246;-64
2022/07/08 01:13:30;;;;;;;5.50;5.03;;;;;;;21.94;65.78;94981.31;5010308;28;20200;-65
2022/07/08 01:15:57;;;;;;;7.43;4.75;;;;;;;21.88;66.16;94992.13;5010064;28;20880;-64
2022/07/08 01:18:28;;;;;;;4.70;4.40;;;;;;;21.75;66.69;94988.88;5008663;28;20203;-64
2022/07/08 01:20:57;;;;;;;5.10;4.70;;;;;;;21.93;66.10;94985.66;5009612;28;20207;-65
2022/07/08 01:23:24;;;;;;;5.38;5.07;;;;;;;22.26;65.18;94982.19;5009002;28;20778;-64
2022/07/08 01:25:53;;;;;;;4.82;4.53;;;;;;;22.50;64.39;94981.13;5009549;28;20266;-64
2022/07/08 01:28:20;;;;;;;5.35;4.95;;;;;;;22.64;63.89;94978.22;5009017;28;20228;-63
2022/07/08 01:30:47;;;;;;;5.78;5.38;;;;;;;22.40;64.45;94987.06;5007631;28;20238;-64
2022/07/08 01:33:13;;;;;;;5.45;4.97;;;;;;;22.06;65.16;94985.53;5009266;28;20211;-63
2022/07/08 01:35:40;;;;;;;6.10;5.32;;;;;;;21.96;65.78;94985.41;5007385;28;20689;-63
2022/07/08 01:38:08;;;;;;;5.68;5.10;;;;;;;22.36;64.91;94984.81;5008008;28;20652;-64
2022/07/08 01:40:35;;;;;;;7.25;5.72;;;;;;;22.70;63.48;94982.91;5008121;28;20261;-64
2022/07/08 01:43:02;;;;;;;5.68;5.18;;;;;;;22.78;62.99;94977.91;5008002;28;20235;-65
2022/07/08 01:45:29;;;;;;;5.72;5.10;;;;;;;22.55;63.51;94986.72;5007953;28;20219;-65
2022/07/08 01:47:55;;;;;;;6.38;5.90;;;;;;;22.24;64.51;94984.06;5008025;28;21710;-66
2022/07/08 01:50:22;;;;;;;6.03;5.43;;;;;;;22.23;64.91;94982.44;5008174;28;20354;-66
2022/07/08 01:52:49;;;;;;;5.38;5.00;;;;;;;22.41;64.32;94990.47;5009205;28;20210;-64
2022/07/08 01:55:17;;;;;;;5.57;5.28;;;;;;;22.55;63.81;94987.56;5008275;28;20486;-66
2022/07/08 01:57:44;;;;;;;8.38;5.03;;;;;;;22.72;62.88;94989.59;5009983;28;20204;-65
2022/07/08 02:00:12;;;;;;;4.85;4.55;;;;;;;22.94;62.00;94993.84;5008900;28;20234;-64
2022/07/08 02:02:39;;;;;;;5.18;4.68;;;;;;;23.05;61.27;94985.97;5009254;28;20230;-65
2022/07/08 02:05:07;;;;;;;4.75;4.45;;;;;;;23.12;60.89;95001.03;5008643;28;20602;-65
2022/07/08 02:07:34;;;;;;;4.95;4.65;;;;;;;22.91;60.65;95004.47;5009243;28;20285;-65
2022/07/08 02:10:01;;;;;;;4.72;4.43;;;;;;;22.74;60.87;94992.88;5008825;28;20239;-65
2022/07/08 02:12:28;;;;;;;8.18;4.80;;;;;;;22.52;61.33;94995.56;5009040;28;20685;-65
2022/07/08 02:15:01;;;;;;;5.53;4.72;;;;;;;22.45;61.30;95001.41;5009313;28;22090;-64
2022/07/08 02:17:30;;;;;;;5.00;4.60;;;;;;;22.48;61.54;95007.16;5009251;28;20207;-65
2022/07/08 02:19:57;;;;;;;4.65;4.35;;;;;;;22.41;61.68;95000.81;5008526;28;20642;-65
2022/07/08 02:22:24;;;;;;;5.00;4.60;;;;;;;22.53;61.48;94996.38;5009390;28;20658;-64
2022/07/08 02:24:52;;;;;;;4.65;4.35;;;;;;;22.66;60.60;94999.63;5009085;28;20643;-64
2022/07/08 02:27:18;;;;;;;4.18;3.90;;;;;;;22.46;61.16;95011.63;5008868;28;20349;-65
2022/07/08 02:29:47;;;;;;;5.43;4.53;;;;;;;22.40;61.33;95004.34;5008163;28;20211;-65
2022/07/08 02:32:13;;;;;;;5.13;4.82;;;;;;;22.31;61.06;95005.09;5009218;28;20211;-64
2022/07/08 02:34:40;;;;;;;4.72;4.32;;;;;;;21.84;62.77;95014.00;5008779;28;20221;-64
2022/07/08 02:37:07;;;;;;;4.95;4.65;;;;;;;21.81;63.11;95012.47;5008410;28;20264;-64
2022/07/08 02:39:34;;;;;;;8.00;5.18;;;;;;;21.66;63.48;95013.69;5008274;28;20211;-65
2022/07/08 02:42:01;;;;;;;5.47;5.10;;;;;;;21.33;64.42;95017.09;5008287;28;20219;-64
2022/07/08 02:44:27;;;;;;;5.28;4.88;;;;;;;20.66;66.88;95011.81;5009167;28;20192;-64
2022/07/08 02:46:56;;;;;;;6.20;5.80;;;;;;;20.47;68.30;95011.53;5008745;28;20203;-65
2022/07/08 02:49:22;;;;;;;5.53;5.10;;;;;;;20.61;67.95;95021.66;5008788;28;20214;-64
2022/07/08 02:51:49;;;;;;;7.45;5.00;;;;;;;21.11;66.32;95020.47;5008752;28;20208;-65
2022/07/08 02:54:16;;;;;;;6.10;5.72;;;;;;;21.26;65.37;95016.78;5009034;28;20213;-64
2022/07/08 02:56:43;;;;;;;5.40;4.90;;;;;;;20.94;66.64;95015.75;5008196;28;20678;-65
2022/07/08 02:59:09;;;;;;;5.20;4.90;;;;;;;21.15;65.97;95008.16;5008260;28;20717;-64
2022/07/08 03:01:36;;;;;;;5.75;4.65;;;;;;;21.33;65.27;95009.34;5008145;28;21008;-64
2022/07/08 03:04:05;;;;;;;4.88;4.57;;;;;;;21.41;64.99;95008.78;5008614;28;20297;-64
2022/07/08 03:06:31;;;;;;;5.65;5.35;;;;;;;21.44;64.99;95009.38;5008066;28;20709;-64
2022/07/08 03:08:58;;;;;;;6.35;5.72;;;;;;;21.40;65.45;95005.38;5011249;28;20199;-64
2022/07/08 03:11:26;;;;;;;6.22;5.53;;;;;;;21.55;64.79;95011.09;5010915;28;20195;-64
2022/07/08 03:13:53;;;;;;;7.35;5.20;;;;;;;21.86;63.82;95004.38;5012758;28;20661;-64
2022/07/08 03:16:20;;;;;;;6.70;5.70;;;;;;;22.10;62.82;95002.44;5010935;28;20199;-64
2022/07/08 03:18:47;;;;;;;5.32;5.03;;;;;;;22.08;62.82;95008.69;5011025;28;20268;-64
2022/07/08 03:21:15;;;;;;;5.15;4.75;;;;;;;21.71;64.17;95009.81;5011298;28;20200;-66
2022/07/08 03:23:42;;;;;;;7.22;5.20;;;;;;;21.76;64.03;95016.41;5010725;28;20227;-65
2022/07/08 03:26:08;;;;;;;5.40;4.93;;;;;;;21.81;63.95;95014.25;5010561;28;20596;-65
2022/07/08 03:28:35;;;;;;;5.45;5.13;;;;;;;21.77;64.17;95016.28;5011044;28;20647;-66
2022/07/08 03:31:02;;;;;;;10.40;5.53;;;;;;;21.80;63.95;95016.00;5009572;28;20834;-64
2022/07/08 03:33:29;;;;;;;5.13;4.63;;;;;;;22.09;63.49;95011.16;5011260;28;20270;-64
2022/07/08 03:35:55;;;;;;;6.00;5.20;;;;;;;23.00;60.63;95018.44;5010290;28;20637;-65
2022/07/08 03:38:23;;;;;;;4.88;4.50;;;;;;;24.08;57.13;95016.94;5010626;28;20211;-65
2022/07/08 03:43:34;;;;;;;5.05;4.75;;;;;;;25.07;53.83;95021.91;5009269;28;20975;-65
2022/07/08 03:46:01;;;;;;;5.00;4.60;;;;;;;25.85;51.54;95019.88;5009891;28;20455;-65
2022/07/08 03:48:28;;;;;;;4.10;3.78;;;;;;;26.99;48.37;95019.19;5010618;28;20258;-65
2022/07/08 03:50:55;;;;;;;5.32;4.82;;;;;;;27.74;46.20;95017.69;5011417;28;20203;-65
2022/07/08 03:53:21;;;;;;;4.47;4.03;;;;;;;27.74;45.76;95028.13;5010913;28;20204;-65
2022/07/08 03:55:50;;;;;;;5.18;4.10;;;;;;;27.18;46.71;95025.19;5011417;28;20644;-65
2022/07/08 03:58:16;;;;;;;9.32;8.48;;;;;;;26.94;47.21;95021.44;5011537;28;20798;-66
2022/07/08 04:00:43;;;;;;;8.48;7.70;;;;;;;26.59;47.58;95022.28;5010260;28;20243;-65
2022/07/08 04:03:10;;;;;;;4.63;4.05;;;;;;;25.83;49.25;95023.56;5011180;28;20289;-66
2022/07/08 04:05:38;;;;;;;4.60;4.40;;;;;;;25.30;50.83;95026.78;5012315;28;20231;-65
2022/07/08 04:08:05;;;;;;;4.50;4.10;;;;;;;24.81;51.38;95020.81;5012074;28;20207;-65
2022/07/08 04:10:32;;;;;;;5.07;4.68;;;;;;;24.83;52.14;95020.69;5011223;28;20243;-65
2022/07/08 04:13:00;;;;;;;15.32;11.65;;;;;;;25.71;50.56;95028.16;5011998;28;20196;-64
2022/07/08 04:15:27;;;;;;;10.10;9.25;;;;;;;26.41;48.47;95021.47;5011572;28;20644;-64
2022/07/08 04:17:53;;;;;;;7.15;6.13;;;;;;;26.64;47.89;95027.88;5011092;28;20246;-65
2022/07/08 04:20:20;;;;;;;5.43;4.93;;;;;;;26.54;47.96;95024.50;5011215;28;20203;-66
2022/07/08 04:22:47;;;;;;;6.18;5.60;;;;;;;26.32;48.67;95024.94;5010056;28;20207;-65
2022/07/08 04:25:14;;;;;;;5.53;5.13;;;;;;;26.08;49.38;95025.50;5011379;28;20208;-65
2022/07/08 04:27:41;;;;;;;5.20;4.72;;;;;;;25.92;50.07;95025.31;5011245;28;20207;-65
2022/07/08 04:30:10;;;;;;;11.90;10.90;;;;;;;25.86;50.51;95025.91;5011497;28;20267;-65
2022/07/08 04:32:37;;;;;;;13.63;12.32;;;;;;;25.88;50.13;95031.78;5011007;28;21289;-64
2022/07/08 04:35:04;;;;;;;10.02;7.78;;;;;;;25.87;50.30;95030.13;5011075;28;20289;-65
2022/07/08 04:37:30;;;;;;;8.40;7.68;;;;;;;25.98;49.88;95027.34;5011479;28;20195;-66
2022/07/08 04:39:57;;;;;;;5.40;4.68;;;;;;;26.00;50.00;95031.41;5010746;28;20270;-66
2022/07/08 04:42:24;;;;;;;7.80;5.22;;;;;;;26.03;50.45;95025.09;5010372;28;20212;-65
2022/07/08 04:44:50;;;;;;;5.97;5.28;;;;;;;26.05;50.02;95033.59;5012543;28;20231;-66
2022/07/08 04:47:19;;;;;;;5.03;4.50;;;;;;;25.82;50.49;95032.34;5011066;28;20203;-66
2022/07/08 04:49:45;;;;;;;5.32;4.80;;;;;;;25.39;51.66;95031.13;5011131;28;20261;-66
2022/07/08 04:52:12;;;;;;;6.47;6.05;;;;;;;25.21;52.05;95033.66;5010895;28;20212;-66
2022/07/08 04:54:39;;;;;;;18.88;13.70;;;;;;;25.40;51.42;95027.56;5010923;28;20372;-66
2022/07/08 04:57:07;;;;;;;8.93;7.65;;;;;;;26.80;48.24;95028.97;5010722;28;20220;-66
2022/07/08 04:59:34;;;;;;;5.82;5.32;;;;;;;28.39;44.65;95025.75;5010191;28;20235;-66
2022/07/08 05:02:01;;;;;;;5.13;4.68;;;;;;;29.05;43.18;95011.75;5011130;28;20208;-66
2022/07/08 05:04:29;;;;;;;6.10;4.78;;;;;;;28.82;43.74;95020.41;5009747;28;20227;-66
2022/07/08 05:06:56;;;;;;;4.65;4.35;;;;;;;28.30;44.05;95011.03;5010572;28;20208;-65
2022/07/08 05:09:23;;;;;;;7.15;4.85;;;;;;;27.94;45.14;95014.84;5010474;28;20215;-65
2022/07/08 05:11:50;;;;;;;6.85;5.35;;;;;;;27.46;46.09;95021.47;5009988;28;20208;-64
2022/07/08 05:14:16;;;;;;;4.93;4.68;;;;;;;27.06;47.19;95020.22;5009551;28;20208;-65
2022/07/08 05:16:44;;;;;;;6.28;5.78;;;;;;;27.06;47.32;95024.63;5010272;28;20200;-64
2022/07/08 05:19:11;;;;;;;66.57;44.53;;;;;;;27.50;46.84;95022.75;5010169;28;20756;-66
2022/07/08 05:21:39;;;;;;;11.85;10.65;;;;;;;28.85;43.78;95026.16;5009823;28;20685;-66
2022/07/08 05:24:07;;;;;;;17.48;15.20;;;;;;;30.92;39.84;95024.06;5009824;28;20289;-65
2022/07/08 05:26:34;;;;;;;6.28;5.88;;;;;;;32.22;37.73;95021.88;5009891;28;20654;-65
2022/07/08 05:29:01;;;;;;;9.35;8.60;;;;;;;33.08;36.14;95021.75;5010242;28;20277;-65
2022/07/08 05:31:28;;;;;;;8.07;5.78;;;;;;;34.62;33.72;95011.84;5009451;28;20211;-66
2022/07/08 05:33:55;;;;;;;6.45;5.95;;;;;;;35.85;31.67;95013.06;5009389;28;20256;-65
2022/07/08 05:36:22;;;;;;;6.03;5.55;;;;;;;37.17;29.23;95009.69;5010218;28;20208;-66
2022/07/08 05:38:50;;;;;;;8.65;6.18;;;;;;;37.23;29.09;95001.72;5009999;28;20207;-64
2022/07/08 05:41:17;;;;;;;6.70;5.90;;;;;;;37.84;28.52;94997.47;5009379;28;20208;-65
2022/07/08 05:43:44;;;;;;;5.93;5.25;;;;;;;38.42;27.48;95000.41;5009139;28;20227;-65
2022/07/08 05:46:10;;;;;;;5.95;5.55;;;;;;;38.50;27.31;94997.44;5010115;28;20262;-65
2022/07/08 05:48:37;;;;;;;9.30;6.85;;;;;;;38.59;26.83;95003.28;5009521;28;20211;-66
2022/07/08 05:51:04;;;;;;;6.07;5.57;;;;;;;38.92;26.83;94998.28;5009755;28;20323;-65
2022/07/08 05:53:31;;;;;;;10.85;5.47;;;;;;;38.80;27.22;95002.78;5008621;28;20200;-66
2022/07/08 05:55:59;;;;;;;6.97;6.30;;;;;;;38.66;27.44;94999.47;5009575;28;20215;-63
2022/07/08 05:58:26;;;;;;;6.30;5.18;;;;;;;38.26;27.50;95001.84;5009148;28;20685;-64
2022/07/08 06:00:52;;;;;;;6.70;5.90;;;;;;;36.79;30.06;95000.00;5009480;28;20665;-65
2022/07/08 06:03:19;;;;;;;26.40;6.13;;;;;;;34.93;32.28;95004.16;5008169;28;20211;-65
2022/07/08 06:05:46;;;;;;;5.28;4.78;;;;;;;33.00;36.20;95000.81;5009624;28;20273;-65
2022/07/08 06:08:13;;;;;;;9.05;6.13;;;;;;;32.54;36.80;95002.22;5009932;28;20215;-64
2022/07/08 06:10:40;;;;;;;5.82;5.32;;;;;;;32.26;37.73;95008.19;5008639;28;20847;-65
2022/07/08 06:13:08;;;;;;;7.10;5.70;;;;;;;32.26;37.81;95004.75;5008998;28;20344;-64
2022/07/08 06:15:34;;;;;;;9.80;6.47;;;;;;;32.58;37.78;95003.47;5009386;28;20705;-65
2022/07/08 06:18:01;;;;;;;17.17;9.88;;;;;;;33.28;36.09;95002.69;5008671;28;20203;-65
2022/07/08 06:20:28;;;;;;;7.68;6.90;;;;;;;34.07;34.95;94996.03;5009327;28;20211;-65
2022/07/08 06:22:55;;;;;;;6.93;5.75;;;;;;;33.95;35.34;94997.59;5007442;28;20759;-65
2022/07/08 06:25:22;;;;;;;7.65;6.78;;;;;;;34.55;34.04;94992.53;5008405;28;20794;-70
2022/07/08 06:27:48;;;;;;;13.70;6.82;;;;;;;35.04;33.24;94995.66;5009078;28;20210;-70
2022/07/08 06:30:16;;;;;;;6.72;6.28;;;;;;;34.95;32.82;94991.56;5008898;28;21062;-69
2022/07/08 06:32:43;;;;;;;9.38;6.32;;;;;;;33.64;34.66;94987.50;5007455;28;20207;-69
2022/07/08 06:35:11;;;;;;;8.77;7.43;;;;;;;33.40;35.84;94990.63;5007438;28;20238;-70
2022/07/08 06:37:38;;;;;;;6.50;5.90;;;;;;;33.54;35.35;94984.41;5007381;28;20208;-70
2022/07/08 06:40:07;;;;;;;6.45;5.90;;;;;;;33.09;36.42;94983.88;5007089;28;20210;-70
2022/07/08 06:42:34;;;;;;;7.25;6.57;;;;;;;33.13;36.14;94974.59;5006792;28;20223;-69
2022/07/08 06:45:00;;;;;;;13.57;8.25;;;;;;;32.71;37.53;94980.69;5006995;28;20373;-69
2022/07/08 06:47:28;;;;;;;13.10;9.35;;;;;;;32.56;38.57;94976.53;5007939;28;20738;-69
2022/07/08 06:49:55;;;;;;;7.90;7.18;;;;;;;31.58;39.30;94979.59;5008821;28;20273;-69
2022/07/08 06:52:23;;;;;;;8.23;6.78;;;;;;;30.86;41.08;94967.03;5008804;28;20593;-69
2022/07/08 06:54:50;;;;;;;8.25;6.38;;;;;;;29.77;42.92;94968.03;5008300;28;20273;-70
2022/07/08 06:57:18;;;;;;;7.70;7.07;;;;;;;29.70;43.57;94963.63;5008880;28;20200;-69
2022/07/08 06:59:46;;;;;;;7.93;6.28;;;;;;;29.80;44.97;94959.00;5008680;28;20238;-70
2022/07/08 07:02:13;;;;;;;11.45;6.68;;;;;;;30.05;44.02;94962.34;5009371;28;20204;-70
2022/07/08 07:04:41;;;;;;;7.28;6.65;;;;;;;30.32;42.97;94948.75;5008017;28;20231;-70
2022/07/08 07:07:07;;;;;;;9.02;5.80;;;;;;;29.74;43.89;94950.03;5008305;28;20211;-70
2022/07/08 07:09:35;;;;;;;7.43;6.82;;;;;;;29.83;43.62;94952.63;5009308;28;20285;-70
2022/07/08 07:12:02;;;;;;;4.45;4.10;;;;;;;28.99;43.83;94940.94;5008116;28;20743;-69
2022/07/08 07:14:28;;;;;;;4.32;4.03;;;;;;;27.88;47.25;94942.34;5007769;28;20215;-70
2022/07/08 07:16:55;;;;;;;4.43;4.13;;;;;;;27.92;47.92;94943.66;5008668;28;20208;-69
2022/07/08 07:19:22;;;;;;;4.60;4.25;;;;;;;27.42;48.50;94944.44;5008601;28;20204;-70
2022/07/08 07:21:50;;;;;;;6.13;4.80;;;;;;;27.50;48.43;94954.06;5008740;28;20211;-70
2022/07/08 07:24:17;;;;;;;5.68;5.22;;;;;;;27.10;49.66;94940.69;5008021;28;20679;-70
2022/07/08 07:26:44;;;;;;;4.70;4.40;;;;;;;27.23;49.64;94947.25;5009447;28;21339;-70
2022/07/08 07:29:10;;;;;;;4.30;3.80;;;;;;;27.73;48.12;94945.53;5008310;28;20207;-70
2022/07/08 07:31:37;;;;;;;4.53;4.07;;;;;;;27.70;48.84;94943.28;5008666;28;20216;-70
2022/07/08 07:34:04;;;;;;;4.45;4.10;;;;;;;27.70;48.40;94951.09;5008474;28;20208;-70
2022/07/08 07:36:31;;;;;;;4.97;4.47;;;;;;;27.88;48.08;94947.56;5007986;28;20204;-69
2022/07/08 07:39:00;;;;;;;4.10;3.80;;;;;;;27.53;47.77;94959.00;5008762;28;20207;-70
2022/07/08 07:41:27;;;;;;;4.30;3.95;;;;;;;27.52;48.41;94946.91;5007839;28;20756;-69
2022/07/08 07:43:54;;;;;;;5.05;3.80;;;;;;;27.57;47.98;94953.31;5008268;28;20240;-70
2022/07/08 07:46:20;;;;;;;3.85;3.50;;;;;;;26.85;49.89;94954.53;5008095;28;20270;-70
2022/07/08 07:48:47;;;;;;;4.72;4.40;;;;;;;27.07;50.03;94948.00;5008782;28;20208;-70
2022/07/08 07:51:14;;;;;;;3.67;3.47;;;;;;;27.50;48.54;94949.69;5007706;28;20731;-69
2022/07/08 07:53:41;;;;;;;3.90;3.60;;;;;;;27.51;47.34;94955.72;5008587;28;20730;-69
2022/07/08 07:56:09;;;;;;;4.20;3.92;;;;;;;27.41;48.41;94955.84;5011879;28;20207;-69
2022/07/08 07:58:38;;;;;;;3.40;3.17;;;;;;;26.69;47.27;94963.06;5011937;28;20215;-69
2022/07/08 08:01:05;;;;;;;3.53;3.22;;;;;;;26.24;49.51;94959.69;5011551;28;20236;-70
2022/07/08 08:03:32;;;;;;;4.70;3.35;;;;;;;26.57;49.35;94955.63;5011139;28;20214;-70
2022/07/08 08:05:58;;;;;;;4.30;2.80;;;;;;;26.82;48.62;94951.41;5011305;28;21192;-69
2022/07/08 08:08:25;;;;;;;3.53;3.22;;;;;;;27.14;46.64;94953.44;5011991;28;20222;-70
2022/07/08 08:10:52;;;;;;;3.17;2.97;;;;;;;27.37;47.26;94949.31;5011294;28;20207;-70
2022/07/08 08:13:20;;;;;;;3.92;3.50;;;;;;;27.80;46.07;94960.59;5010992;28;20227;-70
2022/07/08 08:15:47;;;;;;;3.58;3.28;;;;;;;27.96;45.22;94950.19;5012055;28;20700;-70
2022/07/08 08:18:14;;;;;;;2.90;2.28;;;;;;;27.82;43.77;94958.63;5011595;28;20225;-69
2022/07/08 08:20:42;;;;;;;3.88;2.90;;;;;;;27.83;44.80;94945.41;5011379;28;20200;-69
2022/07/08 08:23:09;;;;;;;3.28;2.83;;;;;;;27.98;44.46;94943.00;5010680;28;20298;-70
2022/07/08 08:25:35;;;;;;;2.40;2.30;;;;;;;27.99;43.65;94944.63;5012105;28;20648;-71
2022/07/08 08:28:03;;;;;;;2.72;2.60;;;;;;;27.36;44.29;94942.44;5011658;28;20261;-68
2022/07/08 08:30:32;;;;;;;2.42;2.33;;;;;;;26.59;45.73;94944.06;5011215;28;20207;-71
2022/07/08 08:32:59;;;;;;;3.65;3.45;;;;;;;27.02;45.95;94938.03;5010619;28;20670;-70
2022/07/08 08:35:26;;;;;;;4.50;3.08;;;;;;;27.40;45.62;94933.34;5010365;28;20204;-70
2022/07/08 08:37:53;;;;;;;3.05;2.70;;;;;;;27.18;45.63;94931.28;5011447;28;20203;-71
2022/07/08 08:40:22;;;;;;;2.45;2.15;;;;;;;27.03;45.37;94925.81;5010778;28;20842;-72
2022/07/08 08:42:49;;;;;;;2.83;2.72;;;;;;;26.50;46.67;94928.53;5011248;28;20204;-70
2022/07/08 08:45:15;;;;;;;4.38;3.22;;;;;;;26.15;48.46;94929.34;5010127;28;20803;-70
2022/07/08 08:47:48;;;;;;;3.75;3.45;;;;;;;26.53;48.31;94923.00;5010898;28;20232;-70
2022/07/08 08:53:03;;;;;;;4.32;2.47;;;;;;;27.08;46.38;94919.16;5010556;28;20215;-71
2022/07/08 08:55:32;;;;;;;2.20;2.10;;;;;;;27.30;44.54;94916.97;5009933;28;20206;-69
2022/07/08 08:58:00;;;;;;;2.08;1.98;;;;;;;27.35;44.72;94915.53;5010961;28;20211;-70
2022/07/08 09:00:28;;;;;;;3.10;2.13;;;;;;;27.42;44.71;94910.50;5010785;28;20231;-70
2022/07/08 09:02:57;;;;;;;2.10;2.00;;;;;;;27.72;44.64;94907.34;5010838;28;20199;-69
2022/07/08 09:05:25;;;;;;;2.10;2.00;;;;;;;27.84;43.79;94904.44;5009555;28;20621;-69
2022/07/08 09:07:52;;;;;;;2.92;1.90;;;;;;;27.70;43.28;94896.28;5012081;28;20203;-70
2022/07/08 09:10:19;;;;;;;2.40;2.20;;;;;;;27.75;43.38;94901.81;5011125;28;20208;-70
2022/07/08 09:13:03;;;;;;;2.35;2.25;;;;;;;27.84;42.96;94899.22;5009069;28;20211;-70
2022/07/08 09:15:31;;;;;;;2.38;2.28;;;;;;;27.86;42.00;94892.88;5010444;28;20204;-71
2022/07/08 09:18:00;;;;;;;2.03;1.92;;;;;;;27.84;42.69;94899.22;5009677;28;20878;-71
2022/07/08 09:20:39;;;;;;;2.40;2.30;;;;;;;27.87;43.21;94893.69;5011266;28;20693;-69
2022/07/08 09:23:10;;;;;;;2.13;1.92;;;;;;;28.22;43.03;94885.56;5010108;28;21014;-71
2022/07/08 09:25:37;;;;;;;5.40;2.03;;;;;;;28.33;42.64;94881.81;5010706;28;20227;-70
2022/07/08 09:28:04;;;;;;;3.10;2.50;;;;;;;28.65;42.29;94883.59;5010071;28;20222;-70
2022/07/08 09:30:30;;;;;;;2.75;2.55;;;;;;;28.78;41.81;94896.97;5009882;28;20211;-69
2022/07/08 09:33:00;;;;;;;3.47;1.98;;;;;;;29.06;41.19;94886.97;5009503;28;20334;-71
2022/07/08 09:35:37;;;;;;;2.08;1.98;;;;;;;29.14;41.75;94886.13;5010403;28;20212;-71
2022/07/08 09:38:05;;;;;;;3.30;3.00;;;;;;;29.39;41.80;94866.72;5010137;28;20666;-70
2022/07/08 09:40:32;;;;;;;2.78;2.55;;;;;;;28.94;41.99;94870.81;5009829;28;20254;-70
2022/07/08 09:43:02;;;;;;;2.58;2.28;;;;;;;27.66;44.03;94874.06;5010041;28;20266;-70
2022/07/08 09:45:31;;;;;;;2.97;2.78;;;;;;;27.23;45.74;94871.59;5010420;28;20231;-69
2022/07/08 09:48:07;;;;;;;10.60;2.90;;;;;;;27.27;45.84;94863.31;5009686;28;20203;-69
2022/07/08 09:50:41;;;;;;;3.17;3.08;;;;;;;27.33;45.77;94867.09;5009132;28;20586;-69
2022/07/08 09:53:14;;;;;;;2.90;2.70;;;;;;;27.65;45.82;94864.59;5006978;28;20641;-70
2022/07/08 09:55:43;;;;;;;4.18;3.88;;;;;;;28.02;44.77;94858.09;5008649;28;20204;-70
2022/07/08 09:58:13;;;;;;;3.30;1.95;;;;;;;27.73;43.50;94864.59;5008253;28;20214;-71
2022/07/08 10:00:41;;;;;;;2.63;2.53;;;;;;;28.00;43.95;94873.94;5008987;28;20618;-67
2022/07/08 10:03:10;;;;;;;3.75;3.15;;;;;;;28.38;42.57;94863.88;5008749;28;20943;-71
2022/07/08 10:05:37;;;;;;;2.83;2.60;;;;;;;29.13;41.70;94855.72;5010077;28;20243;-71
2022/07/08 10:08:04;;;;;;;2.30;2.20;;;;;;;29.18;41.33;94850.78;5008209;28;20207;-71
2022/07/08 10:10:33;;;;;;;3.60;3.40;;;;;;;29.07;41.42;94847.53;5008886;28;20208;-70
2022/07/08 10:13:00;;;;;;;2.20;1.98;;;;;;;28.76;41.41;94844.00;5008923;28;20602;-70
2022/07/08 10:15:29;;;;;;;3.13;2.80;;;;;;;28.48;43.01;94829.69;5009465;28;20222;-69
2022/07/08 10:17:58;;;;;;;3.55;3.35;;;;;;;28.35;42.41;94830.22;5008443;28;21953;-70
2022/07/08 10:20:31;;;;;;;5.13;4.78;;;;;;;28.62;42.68;94822.00;5009518;28;20306;-70
2022/07/08 10:23:02;;;;;;;6.82;3.08;;;;;;;28.56;41.78;94817.44;5006910;28;20266;-70
2022/07/08 10:25:30;;;;;;;2.65;2.50;;;;;;;28.22;40.78;94824.66;5005908;28;20227;-69
2022/07/08 10:28:08;;;;;;;2.90;2.60;;;;;;;27.75;41.92;94812.22;5006549;28;20673;-69
2022/07/08 10:30:50;;;;;;;2.78;2.67;;;;;;;27.98;42.35;94810.59;5006314;28;20200;-71
2022/07/08 10:33:24;;;;;;;3.08;2.88;;;;;;;27.86;43.02;94811.91;5006252;28;20499;-69
2022/07/08 10:36:05;;;;;;;3.00;2.88;;;;;;;27.29;43.45;94805.75;5006775;28;20210;-70
2022/07/08 10:38:34;;;;;;;6.72;2.45;;;;;;;26.62;45.06;94813.44;5007676;28;20834;-70
2022/07/08 10:41:05;;;;;;;2.60;2.40;;;;;;;26.26;46.13;94802.28;5007311;28;20215;-70
2022/07/08 10:43:32;;;;;;;2.45;2.28;;;;;;;26.34;45.89;94814.59;5008520;28;20736;-71
2022/07/08 10:46:01;;;;;;;2.75;2.63;;;;;;;27.07;45.56;94818.41;5009333;28;20278;-71
2022/07/08 10:48:28;;;;;;;2.63;2.53;;;;;;;27.75;43.38;94817.44;5008559;28;20203;-71
2022/07/08 10:50:56;;;;;;;2.30;2.20;;;;;;;27.99;42.80;94824.47;5009484;28;20211;-71
2022/07/08 10:53:24;;;;;;;2.22;2.13;;;;;;;28.37;40.76;94825.63;5008427;28;20214;-70
2022/07/08 10:55:50;;;;;;;2.17;2.08;;;;;;;28.20;41.79;94827.47;5008887;28;20273;-71
2022/07/08 10:58:17;;;;;;;4.75;2.30;;;;;;;28.02;42.22;94824.97;5008817;28;20626;-71
2022/07/08 11:01:22;;;;;;;1.70;1.70;;;;;;;27.50;43.40;94811.34;5008143;28;20277;-71
2022/07/08 11:03:49;;;;;;;2.05;1.95;;;;;;;27.30;43.97;94810.81;4997331;28;21606;-71
2022/07/08 11:06:33;;;;;;;2.15;2.05;;;;;;;27.46;42.88;94812.66;5009155;28;20289;-71
2022/07/08 11:09:04;;;;;;;2.83;1.70;;;;;;;28.04;43.07;94801.28;5009025;28;20199;-70
2022/07/08 11:11:31;;;;;;;3.13;2.78;;;;;;;28.20;42.38;94796.09;5008653;28;20673;-69
2022/07/08 11:13:59;;;;;;;2.35;2.20;;;;;;;28.26;41.97;94792.81;5009015;28;20215;-69
2022/07/08 11:16:32;;;;;;;2.38;2.28;;;;;;;27.35;42.67;94795.50;5008854;28;20294;-70
2022/07/08 11:18:58;;;;;;;2.10;2.00;;;;;;;27.31;43.34;94793.38;5008750;28;20200;-70
2022/07/08 11:21:25;;;;;;;7.28;2.50;;;;;;;27.06;44.00;94800.31;5008953;28;20215;-70
2022/07/08 11:23:52;;;;;;;2.40;2.20;;;;;;;26.85;43.12;94776.41;5008217;28;20215;-69
2022/07/08 11:26:22;;;;;;;2.13;1.92;;;;;;;26.62;43.33;94791.78;5009000;28;20735;-70
2022/07/08 11:28:49;;;;;;;2.25;2.15;;;;;;;26.55;44.09;94785.56;5009867;28;20212;-70
2022/07/08 11:31:20;;;;;;;6.50;2.05;;;;;;;26.73;44.58;94789.69;5012592;28;20208;-70
2022/07/08 11:33:47;;;;;;;2.65;2.50;;;;;;;26.87;44.75;94782.28;5012745;28;20213;-71
2022/07/08 11:36:17;;;;;;;8.95;2.28;;;;;;;26.77;44.54;94774.56;5012748;28;20203;-71
2022/07/08 11:38:44;;;;;;;2.45;2.35;;;;;;;26.60;44.63;94778.09;5012104;28;20211;-70
2022/07/08 11:41:11;;;;;;;2.50;2.30;;;;;;;26.90;44.43;94772.34;5012793;28;20208;-70